Alief, TX

9:02 PM CDT on September 14, 2014 (GMT -0500)
ShadowLake | Change Station
CLOSE
Current Station
Personal Weather Station
Location: West Houston / Alief, TX
Elevation: 72 ft
Nearby Weather Stations

Elev 72 ft 29.72 °N, 95.60 °W | Updated 5 seconds ago

Partly Cloudy
Partly Cloudy
73.6 °F
Feels Like 77 °F
N
0.0
Wind Variable Wind from ENE
Gusts 0.0 mph

Today
High -- | Low -- °F
--% Chance of Precip.
Yesterday
High -- | Low -- °F
Precip. -- in
7:06 AM 7:28 PM
Waning Gibbous, 60% visible
Pressure 30.11 in
Visibility 10.0 miles
Clouds Clear
Heat Index 77 °F
Dew Point 51 °F
Humidity 45%
Rainfall 0.00 in
Snow Depth Not available.
UV 0 out of 12
Pollen 8.40 out of 12
Ozone Good
PM2.5 Good
Flu Activity Not available.
METAR KSGR 150153Z 00000KT 10SM CLR 23/20 A3010 RMK AO2 SLP195 T02330200

More Conditions Fewer Conditions

Pressure 30.11 in
Visibility 10.0 miles
Clouds Clear
Heat Index 77 °F
Dew Point 51 °F
Humidity 45%
Rainfall 0.00 in
Snow Depth Not available.
UV 0 out of 12
Pollen 8.40 out of 12
Ozone Good
PM2.5 Good
Flu Activity Not available.
METAR KSGR 150153Z 00000KT 10SM CLR 23/20 A3010 RMK AO2 SLP195 T02330200

More Conditions Fewer Conditions

10-Day Weather Forecast

Almanac

Astronomy

Sep. 14, 2014 Rise Set
Actual Time 7:06 AM CDT 7:28 PM CDT
Civil Twilight 6:42 AM CDT 7:52 PM CDT
Nautical Twilight 6:14 AM CDT 8:20 PM CDT
Astronomical Twilight 5:46 AM CDT 8:48 PM CDT
Moon 11:47 PM CDT (9/14) 12:48 PM CDT (9/14)
Length of Visible Light 13h 10m
Length of Day
12h 22m
Tomorrow will be 1m 46s shorter.
Waning Gibbous, 60% of the Moon is Illuminated
Today
Waning Gibbous
Sep 15
Last Quarter
Sep 24
New
Oct 1
First Quarter
Oct 8
Full

Today's Extremes

State Highs State Lows

Community

WunderPhotos

Upload Photos

1,753,371 photos uploaded!

Nearby

Air Quality

  Air Quality AQ Index Pollutant
Yesterday Good
PM2.5
Yesterday Good
OZONE
Current Good
PM2.5
Current Good
OZONE
Sunday Moderate
OZONE
Sunday Good
PM10
Monday Moderate
OZONE
Monday Good
PM10
Tuesday Good
OZONE
Tuesday Good
PM10

Snow Depth

Station Depth Elevation
No new snow has been reported.

Earthquake Activity

City Distance Mag. Time & Date
No recent earthquake activity has been reported nearby.
Minimum magnitude displayed is 2.5.

Coastal Water Temperatures

Place Temperature
No Stations Reporting

Nearby Weather Stations